sensor_id;sensor_type;location;lat;lon;timestamp;temperature;humidity
30628;DHT22;17394;50.890;4.724;2023-03-26T00:02:10;8.60;99.90
30628;DHT22;17394;50.890;4.724;2023-03-26T00:04:35;8.70;99.90
30628;DHT22;17394;50.890;4.724;2023-03-26T00:07:01;8.70;99.90
30628;DHT22;17394;50.890;4.724;2023-03-26T00:09:27;8.80;99.90
30628;DHT22;17394;50.890;4.724;2023-03-26T00:11:54;8.80;99.90
30628;DHT22;17394;50.890;4.724;2023-03-26T00:14:20;8.80;99.90
30628;DHT22;17394;50.890;4.724;2023-03-26T00:16:46;8.80;99.90
30628;DHT22;17394;50.890;4.724;2023-03-26T00:19:13;8.90;99.90
30628;DHT22;17394;50.890;4.724;2023-03-26T00:21:39;8.90;99.90
30628;DHT22;17394;50.890;4.724;2023-03-26T00:24:10;8.90;99.90
30628;DHT22;17394;50.890;4.724;2023-03-26T00:26:39;8.90;99.90
30628;DHT22;17394;50.890;4.724;2023-03-26T00:29:05;8.90;99.90
30628;DHT22;17394;50.890;4.724;2023-03-26T00:31:32;9.00;99.90
30628;DHT22;17394;50.890;4.724;2023-03-26T00:33:58;9.00;99.90
30628;DHT22;17394;50.890;4.724;2023-03-26T00:36:27;9.00;99.90
30628;DHT22;17394;50.890;4.724;2023-03-26T00:38:53;9.00;99.90
30628;DHT22;17394;50.890;4.724;2023-03-26T00:41:20;9.00;99.90
30628;DHT22;17394;50.890;4.724;2023-03-26T00:43:57;9.00;99.90
30628;DHT22;17394;50.890;4.724;2023-03-26T00:46:24;9.10;99.90
30628;DHT22;17394;50.890;4.724;2023-03-26T00:48:49;9.00;99.90
30628;DHT22;17394;50.890;4.724;2023-03-26T00:51:16;9.00;99.90
30628;DHT22;17394;50.890;4.724;2023-03-26T00:53:46;9.00;99.90
30628;DHT22;17394;50.890;4.724;2023-03-26T00:56:12;9.00;99.90
30628;DHT22;17394;50.890;4.724;2023-03-26T00:58:38;9.00;99.90
30628;DHT22;17394;50.890;4.724;2023-03-26T01:01:05;8.90;99.90
30628;DHT22;17394;50.890;4.724;2023-03-26T01:03:32;9.00;99.90
30628;DHT22;17394;50.890;4.724;2023-03-26T01:05:59;8.90;99.90
30628;DHT22;17394;50.890;4.724;2023-03-26T01:11:08;8.80;99.90
30628;DHT22;17394;50.890;4.724;2023-03-26T01:13:39;8.70;99.90
30628;DHT22;17394;50.890;4.724;2023-03-26T01:16:06;8.60;99.90
30628;DHT22;17394;50.890;4.724;2023-03-26T01:18:34;8.50;99.90
30628;DHT22;17394;50.890;4.724;2023-03-26T01:21:05;8.50;99.90
30628;DHT22;17394;50.890;4.724;2023-03-26T01:23:44;8.40;99.90
30628;DHT22;17394;50.890;4.724;2023-03-26T01:26:13;8.30;99.90
30628;DHT22;17394;50.890;4.724;2023-03-26T01:28:41;8.30;99.90
30628;DHT22;17394;50.890;4.724;2023-03-26T01:31:10;8.30;99.90
30628;DHT22;17394;50.890;4.724;2023-03-26T01:33:42;8.20;99.90
30628;DHT22;17394;50.890;4.724;2023-03-26T01:36:22;8.10;99.90
30628;DHT22;17394;50.890;4.724;2023-03-26T01:38:52;8.00;99.90
30628;DHT22;17394;50.890;4.724;2023-03-26T01:41:43;8.00;99.90
30628;DHT22;17394;50.890;4.724;2023-03-26T01:46:45;8.00;99.90
30628;DHT22;17394;50.890;4.724;2023-03-26T01:49:12;8.00;99.90
30628;DHT22;17394;50.890;4.724;2023-03-26T01:51:38;8.00;99.90
30628;DHT22;17394;50.890;4.724;2023-03-26T01:54:05;8.00;99.90
30628;DHT22;17394;50.890;4.724;2023-03-26T02:01:32;7.90;99.90
30628;DHT22;17394;50.890;4.724;2023-03-26T02:06:46;7.90;99.90
30628;DHT22;17394;50.890;4.724;2023-03-26T02:09:19;7.90;99.90
30628;DHT22;17394;50.890;4.724;2023-03-26T02:11:46;7.90;99.90
30628;DHT22;17394;50.890;4.724;2023-03-26T02:14:12;8.00;99.90
30628;DHT22;17394;50.890;4.724;2023-03-26T02:16:39;8.00;99.90
30628;DHT22;17394;50.890;4.724;2023-03-26T02:19:04;8.00;99.90
30628;DHT22;17394;50.890;4.724;2023-03-26T02:21:34;8.00;99.90
30628;DHT22;17394;50.890;4.724;2023-03-26T02:24:00;7.90;99.90
30628;DHT22;17394;50.890;4.724;2023-03-26T02:26:29;7.90;99.90
30628;DHT22;17394;50.890;4.724;2023-03-26T02:28:56;7.90;99.90
30628;DHT22;17394;50.890;4.724;2023-03-26T02:31:21;7.90;99.90
30628;DHT22;17394;50.890;4.724;2023-03-26T02:33:51;7.90;99.90
30628;DHT22;17394;50.890;4.724;2023-03-26T02:36:16;7.90;99.90
30628;DHT22;17394;50.890;4.724;2023-03-26T02:38:43;7.80;99.90
30628;DHT22;17394;50.890;4.724;2023-03-26T02:41:09;7.80;99.90
30628;DHT22;17394;50.890;4.724;2023-03-26T02:43:35;7.90;99.90
30628;DHT22;17394;50.890;4.724;2023-03-26T02:46:00;7.80;99.90
30628;DHT22;17394;50.890;4.724;2023-03-26T02:48:26;7.80;99.90
30628;DHT22;17394;50.890;4.724;2023-03-26T02:50:52;7.80;99.90
30628;DHT22;17394;50.890;4.724;2023-03-26T02:53:19;7.80;99.90
30628;DHT22;17394;50.890;4.724;2023-03-26T02:55:46;7.80;99.90
30628;DHT22;17394;50.890;4.724;2023-03-26T02:58:12;7.80;99.90
30628;DHT22;17394;50.890;4.724;2023-03-26T03:00:42;7.80;99.90
30628;DHT22;17394;50.890;4.724;2023-03-26T03:03:08;7.90;99.90
30628;DHT22;17394;50.890;4.724;2023-03-26T03:05:33;7.90;99.90
30628;DHT22;17394;50.890;4.724;2023-03-26T03:08:02;7.90;99.90
30628;DHT22;17394;50.890;4.724;2023-03-26T03:10:28;8.00;99.90
30628;DHT22;17394;50.890;4.724;2023-03-26T03:12:57;8.00;99.90
30628;DHT22;17394;50.890;4.724;2023-03-26T03:15:22;8.00;99.90
30628;DHT22;17394;50.890;4.724;2023-03-26T03:17:48;8.00;99.90
30628;DHT22;17394;50.890;4.724;2023-03-26T03:20:14;8.00;99.90
30628;DHT22;17394;50.890;4.724;2023-03-26T03:22:39;8.00;99.90
30628;DHT22;17394;50.890;4.724;2023-03-26T03:25:05;8.00;99.90
30628;DHT22;17394;50.890;4.724;2023-03-26T03:27:33;8.00;99.90
30628;DHT22;17394;50.890;4.724;2023-03-26T03:29:59;8.00;99.90
30628;DHT22;17394;50.890;4.724;2023-03-26T03:32:24;8.00;99.90
30628;DHT22;17394;50.890;4.724;2023-03-26T03:34:50;8.00;99.90
30628;DHT22;17394;50.890;4.724;2023-03-26T03:37:17;8.00;99.90
30628;DHT22;17394;50.890;4.724;2023-03-26T03:39:43;8.00;99.90
30628;DHT22;17394;50.890;4.724;2023-03-26T03:42:08;8.00;99.90
30628;DHT22;17394;50.890;4.724;2023-03-26T03:44:34;8.00;99.90
30628;DHT22;17394;50.890;4.724;2023-03-26T03:47:00;8.00;99.90
30628;DHT22;17394;50.890;4.724;2023-03-26T03:49:26;8.00;99.90
30628;DHT22;17394;50.890;4.724;2023-03-26T03:51:51;8.00;99.90
30628;DHT22;17394;50.890;4.724;2023-03-26T03:54:17;8.00;99.90
30628;DHT22;17394;50.890;4.724;2023-03-26T03:56:43;8.00;99.90
30628;DHT22;17394;50.890;4.724;2023-03-26T03:59:10;8.00;99.90
30628;DHT22;17394;50.890;4.724;2023-03-26T04:01:36;8.00;99.90
30628;DHT22;17394;50.890;4.724;2023-03-26T04:04:02;7.90;99.90
30628;DHT22;17394;50.890;4.724;2023-03-26T04:06:27;8.00;99.90
30628;DHT22;17394;50.890;4.724;2023-03-26T04:08:54;7.90;99.90
30628;DHT22;17394;50.890;4.724;2023-03-26T04:11:20;7.90;99.90
30628;DHT22;17394;50.890;4.724;2023-03-26T04:13:46;7.90;99.90
30628;DHT22;17394;50.890;4.724;2023-03-26T04:16:12;7.90;99.90
30628;DHT22;17394;50.890;4.724;2023-03-26T04:18:37;7.90;99.90
30628;DHT22;17394;50.890;4.724;2023-03-26T04:21:03;7.90;99.90
30628;DHT22;17394;50.890;4.724;2023-03-26T04:23:30;7.90;99.90
30628;DHT22;17394;50.890;4.724;2023-03-26T04:25:56;7.90;99.90
30628;DHT22;17394;50.890;4.724;2023-03-26T04:30:51;7.90;99.90
30628;DHT22;17394;50.890;4.724;2023-03-26T04:33:18;7.90;99.90
30628;DHT22;17394;50.890;4.724;2023-03-26T04:35:45;7.90;99.90
30628;DHT22;17394;50.890;4.724;2023-03-26T04:38:12;8.00;99.90
30628;DHT22;17394;50.890;4.724;2023-03-26T04:40:41;8.00;99.90
30628;DHT22;17394;50.890;4.724;2023-03-26T04:43:10;8.00;99.90
30628;DHT22;17394;50.890;4.724;2023-03-26T04:45:36;8.00;99.90
30628;DHT22;17394;50.890;4.724;2023-03-26T04:48:02;8.00;99.90
30628;DHT22;17394;50.890;4.724;2023-03-26T04:50:28;8.10;99.90
30628;DHT22;17394;50.890;4.724;2023-03-26T04:52:54;8.10;99.90
30628;DHT22;17394;50.890;4.724;2023-03-26T04:56:04;8.10;99.90
30628;DHT22;17394;50.890;4.724;2023-03-26T04:58:10;8.00;99.90
30628;DHT22;17394;50.890;4.724;2023-03-26T05:00:38;8.00;99.90
30628;DHT22;17394;50.890;4.724;2023-03-26T05:03:04;8.00;99.90
30628;DHT22;17394;50.890;4.724;2023-03-26T05:05:30;8.00;99.90
30628;DHT22;17394;50.890;4.724;2023-03-26T05:07:56;8.00;99.90
30628;DHT22;17394;50.890;4.724;2023-03-26T05:10:22;8.00;99.90
30628;DHT22;17394;50.890;4.724;2023-03-26T05:12:47;8.00;99.90
30628;DHT22;17394;50.890;4.724;2023-03-26T05:15:13;7.90;99.90
30628;DHT22;17394;50.890;4.724;2023-03-26T05:17:39;7.90;99.90
30628;DHT22;17394;50.890;4.724;2023-03-26T05:20:14;7.90;99.90
30628;DHT22;17394;50.890;4.724;2023-03-26T05:22:41;7.90;99.90
30628;DHT22;17394;50.890;4.724;2023-03-26T05:25:07;7.90;99.90
30628;DHT22;17394;50.890;4.724;2023-03-26T05:27:33;8.00;99.90
30628;DHT22;17394;50.890;4.724;2023-03-26T05:29:59;8.00;99.90
30628;DHT22;17394;50.890;4.724;2023-03-26T05:32:25;8.00;99.90
30628;DHT22;17394;50.890;4.724;2023-03-26T05:34:51;8.00;99.90
30628;DHT22;17394;50.890;4.724;2023-03-26T05:37:16;8.00;99.90
30628;DHT22;17394;50.890;4.724;2023-03-26T05:39:44;8.00;99.90
30628;DHT22;17394;50.890;4.724;2023-03-26T05:42:10;7.90;99.90
30628;DHT22;17394;50.890;4.724;2023-03-26T05:44:35;8.00;99.90
30628;DHT22;17394;50.890;4.724;2023-03-26T05:47:01;7.90;99.90
30628;DHT22;17394;50.890;4.724;2023-03-26T05:49:28;7.90;99.90
30628;DHT22;17394;50.890;4.724;2023-03-26T05:51:53;7.90;99.90
30628;DHT22;17394;50.890;4.724;2023-03-26T05:54:19;7.90;99.90
30628;DHT22;17394;50.890;4.724;2023-03-26T05:56:45;7.80;99.90
30628;DHT22;17394;50.890;4.724;2023-03-26T05:59:11;7.80;99.90
30628;DHT22;17394;50.890;4.724;2023-03-26T06:01:38;7.80;99.90
30628;DHT22;17394;50.890;4.724;2023-03-26T06:04:04;7.80;99.90
30628;DHT22;17394;50.890;4.724;2023-03-26T06:06:29;7.70;99.90
30628;DHT22;17394;50.890;4.724;2023-03-26T06:08:55;7.80;99.90
30628;DHT22;17394;50.890;4.724;2023-03-26T06:11:20;7.70;99.90
30628;DHT22;17394;50.890;4.724;2023-03-26T06:13:46;7.70;99.90
30628;DHT22;17394;50.890;4.724;2023-03-26T06:16:12;7.70;99.90
30628;DHT22;17394;50.890;4.724;2023-03-26T06:18:38;7.70;99.90
30628;DHT22;17394;50.890;4.724;2023-03-26T06:21:04;7.70;99.90
30628;DHT22;17394;50.890;4.724;2023-03-26T06:23:31;7.60;99.90
30628;DHT22;17394;50.890;4.724;2023-03-26T06:25:56;7.60;99.90
30628;DHT22;17394;50.890;4.724;2023-03-26T06:28:22;7.60;99.90
30628;DHT22;17394;50.890;4.724;2023-03-26T06:30:48;7.60;99.90
30628;DHT22;17394;50.890;4.724;2023-03-26T06:33:14;7.60;99.90
30628;DHT22;17394;50.890;4.724;2023-03-26T06:35:40;7.60;99.90
30628;DHT22;17394;50.890;4.724;2023-03-26T06:38:07;7.60;99.90
30628;DHT22;17394;50.890;4.724;2023-03-26T06:40:33;7.60;99.90
30628;DHT22;17394;50.890;4.724;2023-03-26T06:42:59;7.60;99.90
30628;DHT22;17394;50.890;4.724;2023-03-26T06:45:25;7.60;99.90
30628;DHT22;17394;50.890;4.724;2023-03-26T06:47:51;7.60;99.90
30628;DHT22;17394;50.890;4.724;2023-03-26T06:50:17;7.70;99.90
30628;DHT22;17394;50.890;4.724;2023-03-26T06:52:42;7.60;99.90
30628;DHT22;17394;50.890;4.724;2023-03-26T06:55:08;7.60;99.90
30628;DHT22;17394;50.890;4.724;2023-03-26T06:57:34;7.60;99.90
30628;DHT22;17394;50.890;4.724;2023-03-26T07:00:00;7.60;99.90
30628;DHT22;17394;50.890;4.724;2023-03-26T07:02:26;7.60;99.90
30628;DHT22;17394;50.890;4.724;2023-03-26T07:04:51;7.60;99.90
30628;DHT22;17394;50.890;4.724;2023-03-26T07:07:18;7.60;99.90
30628;DHT22;17394;50.890;4.724;2023-03-26T07:09:46;7.60;99.90
30628;DHT22;17394;50.890;4.724;2023-03-26T07:12:12;7.60;99.90
30628;DHT22;17394;50.890;4.724;2023-03-26T07:14:38;7.60;99.90
30628;DHT22;17394;50.890;4.724;2023-03-26T07:17:03;7.60;99.90
30628;DHT22;17394;50.890;4.724;2023-03-26T07:19:29;7.50;99.90
30628;DHT22;17394;50.890;4.724;2023-03-26T07:21:55;7.40;99.90
30628;DHT22;17394;50.890;4.724;2023-03-26T07:24:21;7.40;99.90
30628;DHT22;17394;50.890;4.724;2023-03-26T07:27:01;7.40;99.90
30628;DHT22;17394;50.890;4.724;2023-03-26T07:29:36;7.40;99.90
30628;DHT22;17394;50.890;4.724;2023-03-26T07:34:58;7.40;99.90
30628;DHT22;17394;50.890;4.724;2023-03-26T07:40:02;7.50;99.90
30628;DHT22;17394;50.890;4.724;2023-03-26T07:42:39;7.50;99.90
30628;DHT22;17394;50.890;4.724;2023-03-26T07:47:33;7.50;99.90
30628;DHT22;17394;50.890;4.724;2023-03-26T07:49:59;7.50;99.90
30628;DHT22;17394;50.890;4.724;2023-03-26T07:52:25;7.50;99.90
30628;DHT22;17394;50.890;4.724;2023-03-26T07:54:51;7.50;99.90
30628;DHT22;17394;50.890;4.724;2023-03-26T07:57:27;7.50;99.90
30628;DHT22;17394;50.890;4.724;2023-03-26T08:05:23;7.50;99.90
30628;DHT22;17394;50.890;4.724;2023-03-26T08:16:06;7.50;99.90
30628;DHT22;17394;50.890;4.724;2023-03-26T08:21:58;7.50;99.90
30628;DHT22;17394;50.890;4.724;2023-03-26T08:29:02;7.60;99.90
30628;DHT22;17394;50.890;4.724;2023-03-26T08:31:33;7.60;99.90
30628;DHT22;17394;50.890;4.724;2023-03-26T08:33:59;7.60;99.90
30628;DHT22;17394;50.890;4.724;2023-03-26T08:36:25;7.60;99.90
30628;DHT22;17394;50.890;4.724;2023-03-26T08:38:52;7.70;99.90
30628;DHT22;17394;50.890;4.724;2023-03-26T08:49:33;7.60;99.90
30628;DHT22;17394;50.890;4.724;2023-03-26T08:55:05;7.60;99.90
30628;DHT22;17394;50.890;4.724;2023-03-26T08:57:45;7.60;99.90
30628;DHT22;17394;50.890;4.724;2023-03-26T09:05:31;7.60;99.90
30628;DHT22;17394;50.890;4.724;2023-03-26T09:22:52;7.80;99.90
30628;DHT22;17394;50.890;4.724;2023-03-26T09:25:40;7.90;99.90
30628;DHT22;17394;50.890;4.724;2023-03-26T09:34:14;8.00;99.90
30628;DHT22;17394;50.890;4.724;2023-03-26T09:39:05;7.90;99.90
30628;DHT22;17394;50.890;4.724;2023-03-26T09:46:56;8.00;99.90
30628;DHT22;17394;50.890;4.724;2023-03-26T09:51:57;7.90;99.90
30628;DHT22;17394;50.890;4.724;2023-03-26T09:54:33;7.90;99.90
30628;DHT22;17394;50.890;4.724;2023-03-26T09:57:20;7.90;99.90
30628;DHT22;17394;50.890;4.724;2023-03-26T10:02:21;7.90;99.90
30628;DHT22;17394;50.890;4.724;2023-03-26T10:12:45;8.00;99.90
30628;DHT22;17394;50.890;4.724;2023-03-26T10:25:36;8.00;99.90
30628;DHT22;17394;50.890;4.724;2023-03-26T10:28:47;8.00;99.90
30628;DHT22;17394;50.890;4.724;2023-03-26T10:33:34;8.00;99.90
30628;DHT22;17394;50.890;4.724;2023-03-26T10:38:51;8.10;99.90
30628;DHT22;17394;50.890;4.724;2023-03-26T10:46:35;8.10;99.90
30628;DHT22;17394;50.890;4.724;2023-03-26T10:51:40;8.10;99.90
30628;DHT22;17394;50.890;4.724;2023-03-26T10:56:44;8.30;99.90
30628;DHT22;17394;50.890;4.724;2023-03-26T10:59:14;8.30;99.90
30628;DHT22;17394;50.890;4.724;2023-03-26T11:01:53;8.20;99.90
30628;DHT22;17394;50.890;4.724;2023-03-26T11:04:24;8.20;99.90
30628;DHT22;17394;50.890;4.724;2023-03-26T11:06:57;8.20;99.90
30628;DHT22;17394;50.890;4.724;2023-03-26T11:09:39;8.10;99.90
30628;DHT22;17394;50.890;4.724;2023-03-26T11:17:38;8.10;99.90
30628;DHT22;17394;50.890;4.724;2023-03-26T11:33:02;8.20;99.90
30628;DHT22;17394;50.890;4.724;2023-03-26T11:38:02;8.20;99.90
30628;DHT22;17394;50.890;4.724;2023-03-26T11:40:30;8.20;99.90
30628;DHT22;17394;50.890;4.724;2023-03-26T11:43:07;8.30;99.90
30628;DHT22;17394;50.890;4.724;2023-03-26T11:45:34;8.40;99.90
30628;DHT22;17394;50.890;4.724;2023-03-26T11:48:03;8.30;99.90
30628;DHT22;17394;50.890;4.724;2023-03-26T11:50:34;8.30;99.90
30628;DHT22;17394;50.890;4.724;2023-03-26T11:53:16;8.40;99.90
30628;DHT22;17394;50.890;4.724;2023-03-26T11:56:26;8.40;99.90
30628;DHT22;17394;50.890;4.724;2023-03-26T12:01:19;8.40;99.90
30628;DHT22;17394;50.890;4.724;2023-03-26T12:03:57;8.40;99.90
30628;DHT22;17394;50.890;4.724;2023-03-26T12:06:26;8.30;99.90
30628;DHT22;17394;50.890;4.724;2023-03-26T12:08:53;8.30;99.90
30628;DHT22;17394;50.890;4.724;2023-03-26T12:11:21;8.20;99.90
30628;DHT22;17394;50.890;4.724;2023-03-26T12:13:51;8.20;99.90
30628;DHT22;17394;50.890;4.724;2023-03-26T12:16:18;8.20;99.90
30628;DHT22;17394;50.890;4.724;2023-03-26T12:18:46;8.30;99.90
30628;DHT22;17394;50.890;4.724;2023-03-26T12:21:21;8.40;99.90
30628;DHT22;17394;50.890;4.724;2023-03-26T12:23:59;8.60;99.90
30628;DHT22;17394;50.890;4.724;2023-03-26T12:26:38;8.60;99.90
30628;DHT22;17394;50.890;4.724;2023-03-26T12:29:07;8.70;99.90
30628;DHT22;17394;50.890;4.724;2023-03-26T12:34:28;8.70;99.90
30628;DHT22;17394;50.890;4.724;2023-03-26T12:36:56;8.70;99.90
30628;DHT22;17394;50.890;4.724;2023-03-26T12:39:35;8.60;99.90
30628;DHT22;17394;50.890;4.724;2023-03-26T12:42:03;8.50;99.90
30628;DHT22;17394;50.890;4.724;2023-03-26T12:49:33;8.50;99.90
30628;DHT22;17394;50.890;4.724;2023-03-26T12:52:04;8.50;99.90
30628;DHT22;17394;50.890;4.724;2023-03-26T12:54:41;8.50;99.90
30628;DHT22;17394;50.890;4.724;2023-03-26T12:57:20;8.50;99.90
30628;DHT22;17394;50.890;4.724;2023-03-26T13:08:01;8.80;99.90
30628;DHT22;17394;50.890;4.724;2023-03-26T13:10:40;9.10;99.90
30628;DHT22;17394;50.890;4.724;2023-03-26T13:15:53;9.10;99.90
30628;DHT22;17394;50.890;4.724;2023-03-26T13:18:40;9.00;99.90
30628;DHT22;17394;50.890;4.724;2023-03-26T13:21:17;8.90;99.90
30628;DHT22;17394;50.890;4.724;2023-03-26T13:26:24;9.10;99.90
30628;DHT22;17394;50.890;4.724;2023-03-26T13:34:08;9.30;99.90
30628;DHT22;17394;50.890;4.724;2023-03-26T13:39:12;9.40;99.90
30628;DHT22;17394;50.890;4.724;2023-03-26T13:47:09;9.30;99.90
30628;DHT22;17394;50.890;4.724;2023-03-26T13:49:42;9.40;99.90
30628;DHT22;17394;50.890;4.724;2023-03-26T13:52:10;9.30;99.90
30628;DHT22;17394;50.890;4.724;2023-03-26T13:54:47;9.30;99.90
30628;DHT22;17394;50.890;4.724;2023-03-26T13:57:19;9.30;99.90
30628;DHT22;17394;50.890;4.724;2023-03-26T14:02:23;9.20;99.90
30628;DHT22;17394;50.890;4.724;2023-03-26T14:04:54;9.20;99.90
30628;DHT22;17394;50.890;4.724;2023-03-26T14:07:22;9.10;99.90
30628;DHT22;17394;50.890;4.724;2023-03-26T14:09:55;8.90;99.90
30628;DHT22;17394;50.890;4.724;2023-03-26T14:15:03;8.70;99.90
30628;DHT22;17394;50.890;4.724;2023-03-26T14:17:54;8.60;99.90
30628;DHT22;17394;50.890;4.724;2023-03-26T14:28:00;8.70;99.90
30628;DHT22;17394;50.890;4.724;2023-03-26T14:30:47;8.80;99.90
30628;DHT22;17394;50.890;4.724;2023-03-26T14:36:05;9.10;99.90
30628;DHT22;17394;50.890;4.724;2023-03-26T14:41:21;9.10;99.90
30628;DHT22;17394;50.890;4.724;2023-03-26T14:46:25;9.10;99.90
30628;DHT22;17394;50.890;4.724;2023-03-26T14:51:37;9.00;99.90
30628;DHT22;17394;50.890;4.724;2023-03-26T14:54:10;9.00;99.90
30628;DHT22;17394;50.890;4.724;2023-03-26T14:56:47;9.00;99.90
30628;DHT22;17394;50.890;4.724;2023-03-26T15:07:28;8.80;99.90
30628;DHT22;17394;50.890;4.724;2023-03-26T15:10:13;8.80;99.90
30628;DHT22;17394;50.890;4.724;2023-03-26T15:15:29;8.70;99.90
30628;DHT22;17394;50.890;4.724;2023-03-26T15:50:22;8.20;99.90
30628;DHT22;17394;50.890;4.724;2023-03-26T15:57:55;8.20;99.90
30628;DHT22;17394;50.890;4.724;2023-03-26T16:00:29;8.20;99.90
30628;DHT22;17394;50.890;4.724;2023-03-26T16:08:55;8.10;99.90
30628;DHT22;17394;50.890;4.724;2023-03-26T16:21:45;7.90;99.90
30628;DHT22;17394;50.890;4.724;2023-03-26T16:24:20;7.90;99.90
30628;DHT22;17394;50.890;4.724;2023-03-26T16:29:18;7.90;99.90
30628;DHT22;17394;50.890;4.724;2023-03-26T16:34:25;7.90;99.90
30628;DHT22;17394;50.890;4.724;2023-03-26T16:36:52;7.90;99.90
30628;DHT22;17394;50.890;4.724;2023-03-26T16:56:49;7.60;99.90
30628;DHT22;17394;50.890;4.724;2023-03-26T17:02:03;7.60;99.90
30628;DHT22;17394;50.890;4.724;2023-03-26T17:04:31;7.60;99.90
30628;DHT22;17394;50.890;4.724;2023-03-26T17:12:18;7.60;99.90
30628;DHT22;17394;50.890;4.724;2023-03-26T17:14:58;7.60;99.90
30628;DHT22;17394;50.890;4.724;2023-03-26T17:20:28;7.60;99.90
30628;DHT22;17394;50.890;4.724;2023-03-26T17:33:33;7.70;99.90
30628;DHT22;17394;50.890;4.724;2023-03-26T17:41:04;7.60;99.90
30628;DHT22;17394;50.890;4.724;2023-03-26T17:43:35;7.60;99.90
30628;DHT22;17394;50.890;4.724;2023-03-26T17:48:46;7.60;99.90
30628;DHT22;17394;50.890;4.724;2023-03-26T17:53:56;7.50;99.90
30628;DHT22;17394;50.890;4.724;2023-03-26T17:56:23;7.50;99.90
30628;DHT22;17394;50.890;4.724;2023-03-26T17:58:52;7.50;99.90
30628;DHT22;17394;50.890;4.724;2023-03-26T18:01:36;7.50;99.90
30628;DHT22;17394;50.890;4.724;2023-03-26T18:04:03;7.40;99.90
30628;DHT22;17394;50.890;4.724;2023-03-26T18:09:00;7.40;99.90
30628;DHT22;17394;50.890;4.724;2023-03-26T18:11:36;7.30;99.90
30628;DHT22;17394;50.890;4.724;2023-03-26T18:16:53;7.20;99.90
30628;DHT22;17394;50.890;4.724;2023-03-26T18:19:21;7.20;99.90
30628;DHT22;17394;50.890;4.724;2023-03-26T18:21:57;7.10;99.90
30628;DHT22;17394;50.890;4.724;2023-03-26T18:27:03;7.00;99.90
30628;DHT22;17394;50.890;4.724;2023-03-26T18:29:31;7.00;99.90
30628;DHT22;17394;50.890;4.724;2023-03-26T18:32:01;6.90;99.90
30628;DHT22;17394;50.890;4.724;2023-03-26T18:34:28;6.90;99.90
30628;DHT22;17394;50.890;4.724;2023-03-26T18:39:41;6.80;99.90
30628;DHT22;17394;50.890;4.724;2023-03-26T18:42:19;6.80;99.90
30628;DHT22;17394;50.890;4.724;2023-03-26T18:44:47;6.70;99.90
30628;DHT22;17394;50.890;4.724;2023-03-26T18:47:13;6.70;99.90
30628;DHT22;17394;50.890;4.724;2023-03-26T18:49:41;6.70;99.90
30628;DHT22;17394;50.890;4.724;2023-03-26T18:52:08;6.70;99.90
30628;DHT22;17394;50.890;4.724;2023-03-26T18:54:37;6.70;99.90
30628;DHT22;17394;50.890;4.724;2023-03-26T18:57:06;6.60;99.90
30628;DHT22;17394;50.890;4.724;2023-03-26T18:59:34;6.60;99.90
30628;DHT22;17394;50.890;4.724;2023-03-26T19:02:03;6.60;99.90
30628;DHT22;17394;50.890;4.724;2023-03-26T19:04:29;6.60;99.90
30628;DHT22;17394;50.890;4.724;2023-03-26T19:06:58;6.60;99.90
30628;DHT22;17394;50.890;4.724;2023-03-26T19:09:24;6.50;99.90
30628;DHT22;17394;50.890;4.724;2023-03-26T19:11:54;6.50;99.90
30628;DHT22;17394;50.890;4.724;2023-03-26T19:14:21;6.50;99.90
30628;DHT22;17394;50.890;4.724;2023-03-26T19:16:52;6.40;99.90
30628;DHT22;17394;50.890;4.724;2023-03-26T19:19:21;6.40;99.90
30628;DHT22;17394;50.890;4.724;2023-03-26T19:21:48;6.40;99.90
30628;DHT22;17394;50.890;4.724;2023-03-26T19:24:14;6.40;99.90
30628;DHT22;17394;50.890;4.724;2023-03-26T19:26:40;6.40;99.90
30628;DHT22;17394;50.890;4.724;2023-03-26T19:29:08;6.40;99.90
30628;DHT22;17394;50.890;4.724;2023-03-26T19:31:35;6.30;99.90
30628;DHT22;17394;50.890;4.724;2023-03-26T19:34:12;6.30;99.90
30628;DHT22;17394;50.890;4.724;2023-03-26T19:39:41;6.20;99.90
30628;DHT22;17394;50.890;4.724;2023-03-26T19:42:24;6.20;99.90
30628;DHT22;17394;50.890;4.724;2023-03-26T19:44:50;6.10;99.90
30628;DHT22;17394;50.890;4.724;2023-03-26T19:47:21;6.10;99.90
30628;DHT22;17394;50.890;4.724;2023-03-26T19:55:18;6.00;99.90
30628;DHT22;17394;50.890;4.724;2023-03-26T19:57:45;6.00;99.90
30628;DHT22;17394;50.890;4.724;2023-03-26T20:00:12;6.00;99.90
30628;DHT22;17394;50.890;4.724;2023-03-26T20:02:39;6.00;99.90
30628;DHT22;17394;50.890;4.724;2023-03-26T20:05:24;6.00;99.90
30628;DHT22;17394;50.890;4.724;2023-03-26T20:07:51;5.90;99.90
30628;DHT22;17394;50.890;4.724;2023-03-26T20:10:17;6.00;99.90
30628;DHT22;17394;50.890;4.724;2023-03-26T20:12:43;6.00;99.90
30628;DHT22;17394;50.890;4.724;2023-03-26T20:15:12;6.00;99.90
30628;DHT22;17394;50.890;4.724;2023-03-26T20:17:39;6.00;99.90
30628;DHT22;17394;50.890;4.724;2023-03-26T20:20:10;5.90;99.90
30628;DHT22;17394;50.890;4.724;2023-03-26T20:22:37;5.90;99.90
30628;DHT22;17394;50.890;4.724;2023-03-26T20:25:45;5.90;99.90
30628;DHT22;17394;50.890;4.724;2023-03-26T20:27:51;5.80;99.90
30628;DHT22;17394;50.890;4.724;2023-03-26T20:30:19;5.80;99.90
30628;DHT22;17394;50.890;4.724;2023-03-26T20:32:45;5.80;99.90
30628;DHT22;17394;50.890;4.724;2023-03-26T20:37:37;5.80;99.90
30628;DHT22;17394;50.890;4.724;2023-03-26T20:40:02;5.80;99.90
30628;DHT22;17394;50.890;4.724;2023-03-26T20:42:31;5.70;99.90
30628;DHT22;17394;50.890;4.724;2023-03-26T20:44:56;5.70;99.90
30628;DHT22;17394;50.890;4.724;2023-03-26T20:47:22;5.60;99.90
30628;DHT22;17394;50.890;4.724;2023-03-26T20:49:48;5.50;99.90
30628;DHT22;17394;50.890;4.724;2023-03-26T20:52:15;5.60;99.90
30628;DHT22;17394;50.890;4.724;2023-03-26T20:54:43;5.50;99.90
30628;DHT22;17394;50.890;4.724;2023-03-26T20:57:09;5.40;99.90
30628;DHT22;17394;50.890;4.724;2023-03-26T20:59:36;5.40;99.90
30628;DHT22;17394;50.890;4.724;2023-03-26T21:02:01;5.40;99.90
30628;DHT22;17394;50.890;4.724;2023-03-26T21:04:27;5.40;99.90
30628;DHT22;17394;50.890;4.724;2023-03-26T21:06:53;5.50;99.90
30628;DHT22;17394;50.890;4.724;2023-03-26T21:09:19;5.50;99.90
30628;DHT22;17394;50.890;4.724;2023-03-26T21:11:49;5.50;99.90
30628;DHT22;17394;50.890;4.724;2023-03-26T21:16:42;5.50;99.90
30628;DHT22;17394;50.890;4.724;2023-03-26T21:19:08;5.50;99.90
30628;DHT22;17394;50.890;4.724;2023-03-26T21:21:40;5.60;99.90
30628;DHT22;17394;50.890;4.724;2023-03-26T21:26:57;5.60;99.90
30628;DHT22;17394;50.890;4.724;2023-03-26T21:29:27;5.60;99.90
30628;DHT22;17394;50.890;4.724;2023-03-26T21:31:53;5.60;99.90
30628;DHT22;17394;50.890;4.724;2023-03-26T21:34:20;5.50;99.90
30628;DHT22;17394;50.890;4.724;2023-03-26T21:36:46;5.50;99.90
30628;DHT22;17394;50.890;4.724;2023-03-26T21:39:12;5.50;99.90
30628;DHT22;17394;50.890;4.724;2023-03-26T21:41:46;5.50;99.90
30628;DHT22;17394;50.890;4.724;2023-03-26T21:44:13;5.50;99.90
30628;DHT22;17394;50.890;4.724;2023-03-26T21:46:41;5.50;99.90
30628;DHT22;17394;50.890;4.724;2023-03-26T21:49:07;5.50;99.90
30628;DHT22;17394;50.890;4.724;2023-03-26T21:51:33;5.50;99.90
30628;DHT22;17394;50.890;4.724;2023-03-26T21:53:59;5.50;99.90